createdAt,value
2018-12-08T00:01:11.615Z,6.90
2018-12-08T00:03:40.082Z,6.90
2018-12-08T00:06:08.360Z,6.90
2018-12-08T00:08:36.647Z,6.90
2018-12-08T00:11:05.069Z,6.90
2018-12-08T00:13:33.435Z,6.90
2018-12-08T00:16:02.032Z,6.90
2018-12-08T00:18:30.307Z,6.80
2018-12-08T00:21:01.927Z,6.90
2018-12-08T00:23:30.434Z,6.90
2018-12-08T00:25:58.763Z,6.90
2018-12-08T00:28:28.299Z,6.90
2018-12-08T00:31:07.811Z,6.90
2018-12-08T00:33:36.079Z,6.90
2018-12-08T00:36:04.351Z,6.90
2018-12-08T00:38:32.615Z,6.90
2018-12-08T00:41:01.263Z,6.90
2018-12-08T00:43:29.544Z,6.90
2018-12-08T00:45:57.911Z,6.90
2018-12-08T00:48:26.271Z,7.00
2018-12-08T00:50:54.615Z,7.00
2018-12-08T00:53:23.367Z,6.90
2018-12-08T00:55:51.896Z,6.90
2018-12-08T00:59:23.192Z,6.90
2018-12-08T01:01:51.550Z,6.90
2018-12-08T01:04:19.466Z,6.90
2018-12-08T01:06:48.123Z,6.90
2018-12-08T01:09:16.367Z,6.80
2018-12-08T01:11:44.595Z,6.80
2018-12-08T01:14:12.831Z,6.80
2018-12-08T01:16:41.295Z,6.70
2018-12-08T01:19:09.551Z,6.70
2018-12-08T01:21:37.779Z,6.80
2018-12-08T01:24:06.012Z,6.70
2018-12-08T01:26:34.260Z,6.70
2018-12-08T01:29:02.512Z,6.60
2018-12-08T01:31:30.768Z,6.60
2018-12-08T01:33:59.003Z,6.60
2018-12-08T01:36:27.404Z,6.50
2018-12-08T01:38:55.656Z,6.50
2018-12-08T01:41:23.883Z,6.60
2018-12-08T01:43:52.162Z,6.60
2018-12-08T01:46:20.471Z,6.60
2018-12-08T01:48:48.843Z,6.60
2018-12-08T01:51:17.091Z,6.60
2018-12-08T01:53:45.323Z,6.60
2018-12-08T01:56:13.652Z,6.60
2018-12-08T01:58:42.004Z,6.50
2018-12-08T02:01:10.415Z,6.60
2018-12-08T02:03:38.639Z,6.60
2018-12-08T02:06:06.967Z,6.60
2018-12-08T02:08:35.244Z,6.70
2018-12-08T02:11:03.600Z,6.70
2018-12-08T02:13:31.869Z,6.70
2018-12-08T02:16:00.175Z,6.70
2018-12-08T02:18:28.483Z,6.70
2018-12-08T02:20:56.986Z,6.70
2018-12-08T02:23:25.296Z,6.70
2018-12-08T02:25:53.775Z,6.70
2018-12-08T02:28:22.039Z,6.70
2018-12-08T02:30:50.695Z,6.70
2018-12-08T02:33:19.003Z,6.70
2018-12-08T02:35:47.234Z,6.60
2018-12-08T02:38:15.511Z,6.60
2018-12-08T02:40:43.818Z,6.60
2018-12-08T02:43:12.184Z,6.50
2018-12-08T02:45:40.418Z,6.50
2018-12-08T02:48:08.650Z,6.50
2018-12-08T02:50:37.047Z,6.50
2018-12-08T02:53:05.282Z,6.50
2018-12-08T02:55:33.682Z,6.50
2018-12-08T02:58:02.046Z,6.40
2018-12-08T03:00:30.394Z,6.40
2018-12-08T03:02:58.862Z,6.40
2018-12-08T03:05:27.097Z,6.50
2018-12-08T03:07:55.373Z,6.50
2018-12-08T03:10:23.615Z,6.60
2018-12-08T03:12:51.854Z,6.60
2018-12-08T03:15:20.313Z,6.60
2018-12-08T03:17:48.555Z,6.70
2018-12-08T03:20:16.918Z,6.70
2018-12-08T03:22:45.237Z,6.70
2018-12-08T03:25:13.601Z,6.70
2018-12-08T03:27:41.825Z,6.70
2018-12-08T03:30:10.235Z,6.70
2018-12-08T03:32:38.583Z,6.70
2018-12-08T03:35:07.149Z,6.70
2018-12-08T03:37:35.422Z,6.70
2018-12-08T03:40:03.909Z,6.70
2018-12-08T03:42:32.197Z,6.70
2018-12-08T03:45:01.298Z,6.70
2018-12-08T03:47:29.557Z,6.70
2018-12-08T03:49:57.831Z,6.70
2018-12-08T03:52:26.208Z,6.60
2018-12-08T03:54:54.494Z,6.60
2018-12-08T03:57:22.758Z,6.60
2018-12-08T03:59:51.006Z,6.70
2018-12-08T04:02:19.271Z,6.70
2018-12-08T04:04:47.606Z,6.60
2018-12-08T04:07:15.890Z,6.70
2018-12-08T04:09:44.147Z,6.70
2018-12-08T04:12:12.382Z,6.70
2018-12-08T04:14:40.709Z,6.70
2018-12-08T04:17:08.971Z,6.80
2018-12-08T04:19:37.299Z,6.80
2018-12-08T04:22:05.522Z,6.80
2018-12-08T04:24:33.809Z,6.80
2018-12-08T04:27:02.076Z,6.80
2018-12-08T04:29:30.302Z,6.80
2018-12-08T04:31:58.552Z,6.80
2018-12-08T04:34:26.774Z,6.90
2018-12-08T04:36:55.131Z,6.90
2018-12-08T04:39:23.370Z,7.00
2018-12-08T04:41:51.601Z,7.00
2018-12-08T04:44:19.873Z,7.00
2018-12-08T04:46:48.101Z,7.10
2018-12-08T04:49:16.465Z,7.10
2018-12-08T04:51:44.717Z,7.20
2018-12-08T04:54:12.970Z,7.20
2018-12-08T04:56:41.254Z,7.20
2018-12-08T04:59:09.577Z,7.30
2018-12-08T05:01:37.858Z,7.30
2018-12-08T05:04:06.086Z,7.30
2018-12-08T05:06:34.350Z,7.20
2018-12-08T05:09:02.690Z,7.30
2018-12-08T05:11:30.982Z,7.30
2018-12-08T05:13:59.218Z,7.40
2018-12-08T05:16:27.462Z,7.40
2018-12-08T05:18:55.720Z,7.40
2018-12-08T05:21:23.982Z,7.40
2018-12-08T05:23:52.231Z,7.40
2018-12-08T05:26:20.518Z,7.40
2018-12-08T05:28:48.768Z,7.40
2018-12-08T05:31:17.031Z,7.40
2018-12-08T05:33:45.309Z,7.50
2018-12-08T05:36:13.558Z,7.50
2018-12-08T05:38:41.824Z,7.50
2018-12-08T05:41:10.051Z,7.50
2018-12-08T05:43:38.303Z,7.50
2018-12-08T05:46:07.015Z,7.50
2018-12-08T05:48:35.267Z,7.50
2018-12-08T05:51:03.551Z,7.50
2018-12-08T05:53:31.827Z,7.40
2018-12-08T05:56:00.076Z,7.40
2018-12-08T05:58:28.353Z,7.40
2018-12-08T06:00:56.664Z,7.40
2018-12-08T06:03:24.950Z,7.30
2018-12-08T06:05:53.215Z,7.40
2018-12-08T06:08:21.508Z,7.40
2018-12-08T06:10:49.772Z,7.40
2018-12-08T06:13:18.088Z,7.40
2018-12-08T06:15:46.344Z,7.40
2018-12-08T06:18:14.610Z,7.40
2018-12-08T06:20:42.884Z,7.40
2018-12-08T06:23:11.149Z,7.50
2018-12-08T06:25:39.708Z,7.50
2018-12-08T06:28:27.762Z,7.50
2018-12-08T06:30:57.311Z,7.50
2018-12-08T06:33:25.579Z,7.50
2018-12-08T06:35:53.836Z,7.50
2018-12-08T06:38:22.068Z,7.60
2018-12-08T06:40:50.312Z,7.60
2018-12-08T06:43:18.558Z,7.70
2018-12-08T06:45:46.800Z,7.70
2018-12-08T06:48:15.049Z,7.70
2018-12-08T06:50:43.396Z,7.70
2018-12-08T06:53:11.685Z,7.70
2018-12-08T06:55:39.965Z,7.80
2018-12-08T06:58:08.205Z,7.80
2018-12-08T07:00:36.565Z,7.80
2018-12-08T07:03:04.857Z,7.80
2018-12-08T07:05:33.129Z,7.80
2018-12-08T07:08:01.373Z,7.80
2018-12-08T07:10:29.733Z,7.70
2018-12-08T07:12:58.015Z,7.70
2018-12-08T07:15:26.277Z,7.80
2018-12-08T07:17:54.536Z,7.80
2018-12-08T07:20:22.821Z,7.80
2018-12-08T07:22:51.093Z,7.80
2018-12-08T07:25:19.366Z,7.80
2018-12-08T07:27:47.623Z,7.80
2018-12-08T07:30:15.889Z,7.80
2018-12-08T07:32:50.917Z,7.80
2018-12-08T07:35:19.178Z,7.90
2018-12-08T07:37:47.439Z,7.80
2018-12-08T07:40:15.721Z,7.90
2018-12-08T07:42:44.020Z,7.90
2018-12-08T07:45:12.319Z,7.90
2018-12-08T07:47:40.581Z,7.90
2018-12-08T07:50:09.561Z,7.90
2018-12-08T07:52:37.821Z,7.90
2018-12-08T07:55:07.833Z,7.90
2018-12-08T07:57:36.109Z,7.90
2018-12-08T08:00:08.505Z,7.90
2018-12-08T08:02:36.761Z,7.90
2018-12-08T08:05:05.665Z,7.90
2018-12-08T08:07:33.933Z,7.90
2018-12-08T08:10:02.213Z,7.90
2018-12-08T08:12:30.493Z,7.90
2018-12-08T08:14:58.745Z,7.80
2018-12-08T08:17:27.025Z,7.80
2018-12-08T08:19:55.265Z,7.90
2018-12-08T08:22:23.521Z,7.90
2018-12-08T08:24:51.797Z,7.90
2018-12-08T08:27:20.045Z,7.90
2018-12-08T08:29:48.394Z,7.90
2018-12-08T08:32:16.741Z,7.80
2018-12-08T08:34:44.993Z,7.90
2018-12-08T08:37:13.250Z,7.90
2018-12-08T08:39:41.526Z,7.90
2018-12-08T08:42:09.777Z,7.80
2018-12-08T08:44:38.027Z,7.80
2018-12-08T08:47:06.385Z,7.80
2018-12-08T08:49:34.618Z,7.80
2018-12-08T08:52:02.868Z,7.80
2018-12-08T08:54:31.094Z,7.80
2018-12-08T08:56:59.338Z,7.80
2018-12-08T08:59:27.587Z,7.80
2018-12-08T09:01:55.850Z,7.80
2018-12-08T09:04:24.086Z,7.80
2018-12-08T09:06:52.360Z,7.70
2018-12-08T09:09:20.670Z,7.70
2018-12-08T09:11:55.738Z,7.60
2018-12-08T09:14:23.971Z,7.60
2018-12-08T09:16:52.254Z,7.60
2018-12-08T09:19:20.562Z,7.50
2018-12-08T09:21:48.862Z,7.50
2018-12-08T09:24:17.174Z,7.50
2018-12-08T09:26:45.459Z,7.50
2018-12-08T09:29:13.863Z,7.60
2018-12-08T09:31:42.349Z,7.60
2018-12-08T09:34:10.623Z,7.60
2018-12-08T09:36:39.047Z,7.60
2018-12-08T09:39:08.356Z,7.70
2018-12-08T09:41:36.811Z,7.80
2018-12-08T09:44:06.031Z,7.80
2018-12-08T09:46:34.293Z,7.80
2018-12-08T09:49:02.571Z,7.80
2018-12-08T09:51:30.911Z,7.80
2018-12-08T09:53:59.259Z,7.80
2018-12-08T09:56:27.603Z,7.80
2018-12-08T09:58:55.915Z,7.90
2018-12-08T10:01:24.151Z,7.90
2018-12-08T10:03:52.407Z,7.90
2018-12-08T10:06:20.657Z,7.90
2018-12-08T10:08:48.888Z,7.90
2018-12-08T10:11:17.127Z,7.90
2018-12-08T10:13:45.412Z,8.00
2018-12-08T10:16:13.717Z,8.00
2018-12-08T10:18:42.068Z,8.00
2018-12-08T10:21:10.336Z,8.00
2018-12-08T10:23:38.565Z,8.00
2018-12-08T10:26:06.808Z,8.10
2018-12-08T10:28:35.157Z,8.10
2018-12-08T10:31:03.420Z,8.10
2018-12-08T10:33:31.776Z,8.10
2018-12-08T10:36:00.065Z,8.20
2018-12-08T10:38:28.372Z,8.20
2018-12-08T10:40:56.720Z,8.30
2018-12-08T10:43:25.064Z,8.40
2018-12-08T10:45:53.305Z,8.40
2018-12-08T10:48:21.677Z,8.40
2018-12-08T10:50:50.028Z,8.40
2018-12-08T10:53:18.364Z,8.50
2018-12-08T10:55:46.653Z,8.50
2018-12-08T10:58:14.948Z,8.40
2018-12-08T11:07:43.013Z,8.30
2018-12-08T11:10:11.386Z,8.30
2018-12-08T11:12:39.850Z,8.40
2018-12-08T11:15:08.360Z,8.50
2018-12-08T11:17:36.680Z,8.50
2018-12-08T11:20:05.506Z,8.50
2018-12-08T11:22:33.924Z,8.60
2018-12-08T11:25:02.254Z,8.50
2018-12-08T11:27:30.640Z,8.60
2018-12-08T11:29:59.044Z,8.60
2018-12-08T11:32:27.384Z,8.60
2018-12-08T11:34:55.920Z,8.70
2018-12-08T11:37:24.256Z,8.70
2018-12-08T11:39:52.576Z,8.70
2018-12-08T11:42:20.884Z,8.80
2018-12-08T11:44:49.247Z,8.80
2018-12-08T11:47:17.617Z,8.80
2018-12-08T11:49:45.925Z,8.80
2018-12-08T11:52:14.497Z,8.90
2018-12-08T11:54:55.409Z,9.00
2018-12-08T11:57:36.521Z,9.00
2018-12-08T12:00:06.125Z,9.00
2018-12-08T12:02:34.430Z,8.90
2018-12-08T12:05:02.825Z,9.00
2018-12-08T12:07:31.173Z,9.00
2018-12-08T12:09:59.605Z,9.10
2018-12-08T12:12:27.933Z,9.20
2018-12-08T12:14:56.305Z,9.20
2018-12-08T12:17:24.649Z,9.10
2018-12-08T12:19:53.081Z,9.00
2018-12-08T12:22:21.497Z,9.00
2018-12-08T12:24:49.822Z,8.90
2018-12-08T12:27:18.145Z,8.90
2018-12-08T12:29:46.441Z,8.90
2018-12-08T12:32:20.843Z,8.90
2018-12-08T12:35:07.749Z,8.90
2018-12-08T12:37:36.089Z,8.90
2018-12-08T12:40:04.825Z,8.90
2018-12-08T12:42:33.177Z,8.80
2018-12-08T12:45:01.738Z,8.80
2018-12-08T12:47:30.065Z,8.70
2018-12-08T12:49:58.421Z,8.70
2018-12-08T12:52:26.865Z,8.70
2018-12-08T12:55:49.212Z,8.70
2018-12-08T13:01:34.076Z,8.80
2018-12-08T13:04:02.609Z,8.90
2018-12-08T13:06:31.049Z,9.00
